sensor_id;sensor_type;location;lat;lon;timestamp;P1;durP1;ratioP1;P2;durP2;ratioP2
58874;SDS011;44652;49.040;12.126;2023-03-11T06:17:46;2.47;;;1.10;;
58874;SDS011;44652;49.040;12.126;2023-03-11T06:20:13;2.45;;;1.40;;
58874;SDS011;44652;49.040;12.126;2023-03-11T06:22:40;3.53;;;1.30;;
58874;SDS011;44652;49.040;12.126;2023-03-11T06:25:08;1.80;;;1.40;;
58874;SDS011;44652;49.040;12.126;2023-03-11T06:27:37;2.58;;;1.00;;
58874;SDS011;44652;49.040;12.126;2023-03-11T06:30:05;4.00;;;1.52;;
58874;SDS011;44652;49.040;12.126;2023-03-11T06:32:39;3.17;;;1.13;;
58874;SDS011;44652;49.040;12.126;2023-03-11T06:35:06;5.25;;;1.33;;
58874;SDS011;44652;49.040;12.126;2023-03-11T06:37:34;3.92;;;1.30;;
58874;SDS011;44652;49.040;12.126;2023-03-11T06:40:01;3.97;;;1.35;;
58874;SDS011;44652;49.040;12.126;2023-03-11T06:42:28;4.15;;;1.20;;
58874;SDS011;44652;49.040;12.126;2023-03-11T06:47:23;2.78;;;1.25;;
58874;SDS011;44652;49.040;12.126;2023-03-11T06:49:50;3.95;;;1.17;;
58874;SDS011;44652;49.040;12.126;2023-03-11T06:52:17;4.72;;;1.52;;
58874;SDS011;44652;49.040;12.126;2023-03-11T06:54:43;3.38;;;1.27;;
58874;SDS011;44652;49.040;12.126;2023-03-11T06:57:11;6.43;;;1.50;;
58874;SDS011;44652;49.040;12.126;2023-03-11T06:59:38;3.40;;;1.40;;
58874;SDS011;44652;49.040;12.126;2023-03-11T07:02:09;4.57;;;1.70;;
58874;SDS011;44652;49.040;12.126;2023-03-11T07:04:39;4.40;;;1.80;;
58874;SDS011;44652;49.040;12.126;2023-03-11T07:07:06;3.30;;;1.27;;
58874;SDS011;44652;49.040;12.126;2023-03-11T07:09:32;4.05;;;1.35;;
58874;SDS011;44652;49.040;12.126;2023-03-11T07:12:00;5.10;;;1.67;;
58874;SDS011;44652;49.040;12.126;2023-03-11T07:14:32;5.78;;;1.58;;
58874;SDS011;44652;49.040;12.126;2023-03-11T07:16:58;7.65;;;2.35;;
58874;SDS011;44652;49.040;12.126;2023-03-11T07:19:34;5.60;;;1.80;;
58874;SDS011;44652;49.040;12.126;2023-03-11T07:22:00;3.10;;;1.35;;
58874;SDS011;44652;49.040;12.126;2023-03-11T07:24:27;5.07;;;1.90;;
58874;SDS011;44652;49.040;12.126;2023-03-11T07:26:53;4.10;;;1.75;;
58874;SDS011;44652;49.040;12.126;2023-03-11T07:29:20;5.63;;;1.70;;
58874;SDS011;44652;49.040;12.126;2023-03-11T07:31:46;4.30;;;1.90;;
58874;SDS011;44652;49.040;12.126;2023-03-11T07:34:14;3.63;;;1.67;;
58874;SDS011;44652;49.040;12.126;2023-03-11T07:36:42;3.78;;;1.58;;
58874;SDS011;44652;49.040;12.126;2023-03-11T07:39:12;3.25;;;1.27;;
58874;SDS011;44652;49.040;12.126;2023-03-11T07:41:40;5.72;;;1.60;;
58874;SDS011;44652;49.040;12.126;2023-03-11T07:44:06;4.38;;;1.75;;
58874;SDS011;44652;49.040;12.126;2023-03-11T07:46:35;2.60;;;1.10;;
58874;SDS011;44652;49.040;12.126;2023-03-11T07:49:01;2.65;;;1.50;;
58874;SDS011;44652;49.040;12.126;2023-03-11T07:51:30;5.28;;;1.50;;
58874;SDS011;44652;49.040;12.126;2023-03-11T07:53:57;2.58;;;1.00;;
58874;SDS011;44652;49.040;12.126;2023-03-11T07:56:24;2.35;;;1.13;;
58874;SDS011;44652;49.040;12.126;2023-03-11T07:58:51;2.92;;;1.20;;
58874;SDS011;44652;49.040;12.126;2023-03-11T08:01:19;2.80;;;1.10;;
58874;SDS011;44652;49.040;12.126;2023-03-11T08:03:46;5.03;;;1.30;;
58874;SDS011;44652;49.040;12.126;2023-03-11T08:06:19;3.70;;;1.20;;
58874;SDS011;44652;49.040;12.126;2023-03-11T08:08:46;2.97;;;1.20;;
58874;SDS011;44652;49.040;12.126;2023-03-11T08:11:13;3.65;;;1.10;;
58874;SDS011;44652;49.040;12.126;2023-03-11T08:13:40;1.98;;;1.08;;
58874;SDS011;44652;49.040;12.126;2023-03-11T08:16:07;3.78;;;1.38;;
58874;SDS011;44652;49.040;12.126;2023-03-11T08:18:34;2.72;;;1.13;;
58874;SDS011;44652;49.040;12.126;2023-03-11T08:21:05;2.47;;;1.10;;
58874;SDS011;44652;49.040;12.126;2023-03-11T08:23:31;3.13;;;1.20;;
58874;SDS011;44652;49.040;12.126;2023-03-11T08:26:01;3.10;;;1.40;;
58874;SDS011;44652;49.040;12.126;2023-03-11T08:28:27;4.93;;;2.20;;
58874;SDS011;44652;49.040;12.126;2023-03-11T08:30:54;2.28;;;1.30;;
58874;SDS011;44652;49.040;12.126;2023-03-11T08:33:21;3.20;;;1.45;;
58874;SDS011;44652;49.040;12.126;2023-03-11T08:35:47;3.53;;;1.40;;
58874;SDS011;44652;49.040;12.126;2023-03-11T08:38:14;2.53;;;1.50;;
58874;SDS011;44652;49.040;12.126;2023-03-11T08:40:41;3.45;;;1.20;;
58874;SDS011;44652;49.040;12.126;2023-03-11T08:43:11;1.92;;;1.10;;
58874;SDS011;44652;49.040;12.126;2023-03-11T08:45:40;4.05;;;1.30;;
58874;SDS011;44652;49.040;12.126;2023-03-11T08:48:08;2.33;;;1.08;;
58874;SDS011;44652;49.040;12.126;2023-03-11T08:50:35;2.17;;;1.30;;
58874;SDS011;44652;49.040;12.126;2023-03-11T08:53:18;2.25;;;1.23;;
58874;SDS011;44652;49.040;12.126;2023-03-11T08:55:45;2.22;;;1.30;;
58874;SDS011;44652;49.040;12.126;2023-03-11T08:58:12;2.97;;;1.23;;
58874;SDS011;44652;49.040;12.126;2023-03-11T09:00:38;2.15;;;1.13;;
58874;SDS011;44652;49.040;12.126;2023-03-11T09:03:05;3.53;;;1.20;;
58874;SDS011;44652;49.040;12.126;2023-03-11T09:05:31;2.75;;;1.30;;
58874;SDS011;44652;49.040;12.126;2023-03-11T09:07:58;3.47;;;1.23;;
58874;SDS011;44652;49.040;12.126;2023-03-11T09:10:24;2.75;;;0.98;;
58874;SDS011;44652;49.040;12.126;2023-03-11T09:12:51;2.13;;;1.00;;
58874;SDS011;44652;49.040;12.126;2023-03-11T09:15:18;2.00;;;0.82;;
58874;SDS011;44652;49.040;12.126;2023-03-11T09:17:44;1.40;;;1.00;;
58874;SDS011;44652;49.040;12.126;2023-03-11T09:20:11;2.67;;;0.90;;
58874;SDS011;44652;49.040;12.126;2023-03-11T09:22:38;3.08;;;0.95;;
58874;SDS011;44652;49.040;12.126;2023-03-11T09:25:05;2.83;;;1.10;;
58874;SDS011;44652;49.040;12.126;2023-03-11T09:27:31;1.17;;;0.70;;
58874;SDS011;44652;49.040;12.126;2023-03-11T09:29:58;2.05;;;1.00;;
58874;SDS011;44652;49.040;12.126;2023-03-11T09:32:25;1.38;;;0.70;;
58874;SDS011;44652;49.040;12.126;2023-03-11T09:34:51;3.03;;;0.80;;
58874;SDS011;44652;49.040;12.126;2023-03-11T09:37:18;1.63;;;0.75;;
58874;SDS011;44652;49.040;12.126;2023-03-11T09:39:44;1.50;;;0.70;;
58874;SDS011;44652;49.040;12.126;2023-03-11T09:44:44;1.38;;;0.55;;
58874;SDS011;44652;49.040;12.126;2023-03-11T09:47:23;1.92;;;0.77;;
58874;SDS011;44652;49.040;12.126;2023-03-11T09:57:31;1.58;;;0.60;;
58874;SDS011;44652;49.040;12.126;2023-03-11T09:59:58;2.65;;;0.80;;
58874;SDS011;44652;49.040;12.126;2023-03-11T10:02:26;1.75;;;0.50;;
58874;SDS011;44652;49.040;12.126;2023-03-11T10:05:05;2.00;;;0.52;;
58874;SDS011;44652;49.040;12.126;2023-03-11T10:07:40;1.73;;;0.63;;
58874;SDS011;44652;49.040;12.126;2023-03-11T10:10:10;1.23;;;0.40;;
58874;SDS011;44652;49.040;12.126;2023-03-11T10:17:55;1.50;;;0.63;;
58874;SDS011;44652;49.040;12.126;2023-03-11T10:22:54;1.60;;;0.70;;
58874;SDS011;44652;49.040;12.126;2023-03-11T10:27:59;1.33;;;0.70;;
58874;SDS011;44652;49.040;12.126;2023-03-11T10:30:28;1.90;;;0.77;;
58874;SDS011;44652;49.040;12.126;2023-03-11T10:32:58;4.82;;;1.20;;
58874;SDS011;44652;49.040;12.126;2023-03-11T10:35:28;1.92;;;0.90;;
58874;SDS011;44652;49.040;12.126;2023-03-11T10:37:58;3.10;;;0.90;;
58874;SDS011;44652;49.040;12.126;2023-03-11T10:40:35;1.70;;;0.90;;
58874;SDS011;44652;49.040;12.126;2023-03-11T10:43:13;1.38;;;0.90;;
58874;SDS011;44652;49.040;12.126;2023-03-11T10:45:41;2.45;;;1.10;;
58874;SDS011;44652;49.040;12.126;2023-03-11T10:50:36;1.95;;;1.02;;
58874;SDS011;44652;49.040;12.126;2023-03-11T10:53:09;2.85;;;1.20;;
58874;SDS011;44652;49.040;12.126;2023-03-11T10:55:43;2.17;;;1.20;;
58874;SDS011;44652;49.040;12.126;2023-03-11T10:58:12;2.97;;;1.00;;
58874;SDS011;44652;49.040;12.126;2023-03-11T11:00:38;3.05;;;1.80;;
58874;SDS011;44652;49.040;12.126;2023-03-11T11:03:10;3.75;;;1.50;;
58874;SDS011;44652;49.040;12.126;2023-03-11T11:05:37;3.80;;;1.50;;
58874;SDS011;44652;49.040;12.126;2023-03-11T11:08:11;3.67;;;1.40;;
58874;SDS011;44652;49.040;12.126;2023-03-11T11:10:47;3.17;;;1.60;;
58874;SDS011;44652;49.040;12.126;2023-03-11T11:13:16;2.40;;;1.30;;
58874;SDS011;44652;49.040;12.126;2023-03-11T11:15:51;4.78;;;1.40;;
58874;SDS011;44652;49.040;12.126;2023-03-11T11:18:41;3.88;;;1.75;;
58874;SDS011;44652;49.040;12.126;2023-03-11T11:21:08;2.70;;;1.48;;
58874;SDS011;44652;49.040;12.126;2023-03-11T11:23:42;2.13;;;1.20;;
58874;SDS011;44652;49.040;12.126;2023-03-11T11:26:19;3.22;;;1.27;;
58874;SDS011;44652;49.040;12.126;2023-03-11T11:29:04;2.92;;;1.50;;
58874;SDS011;44652;49.040;12.126;2023-03-11T11:31:34;5.38;;;1.85;;
58874;SDS011;44652;49.040;12.126;2023-03-11T11:34:01;2.38;;;1.10;;
58874;SDS011;44652;49.040;12.126;2023-03-11T11:36:28;2.88;;;1.08;;
58874;SDS011;44652;49.040;12.126;2023-03-11T11:38:55;2.05;;;1.00;;
58874;SDS011;44652;49.040;12.126;2023-03-11T11:41:25;2.08;;;0.90;;
58874;SDS011;44652;49.040;12.126;2023-03-11T11:43:57;2.05;;;1.00;;
58874;SDS011;44652;49.040;12.126;2023-03-11T11:51:56;3.20;;;1.10;;
58874;SDS011;44652;49.040;12.126;2023-03-11T11:54:28;2.22;;;0.88;;
58874;SDS011;44652;49.040;12.126;2023-03-11T11:56:56;2.03;;;0.98;;
58874;SDS011;44652;49.040;12.126;2023-03-11T11:59:23;2.42;;;1.10;;
58874;SDS011;44652;49.040;12.126;2023-03-11T12:01:59;1.60;;;1.00;;
58874;SDS011;44652;49.040;12.126;2023-03-11T12:05:32;1.95;;;1.02;;
58874;SDS011;44652;49.040;12.126;2023-03-11T12:15:40;2.97;;;1.10;;
58874;SDS011;44652;49.040;12.126;2023-03-11T12:20:35;4.03;;;1.10;;
58874;SDS011;44652;49.040;12.126;2023-03-11T12:23:06;1.92;;;1.10;;
58874;SDS011;44652;49.040;12.126;2023-03-11T12:35:46;4.30;;;1.30;;
58874;SDS011;44652;49.040;12.126;2023-03-11T12:38:32;3.63;;;1.58;;
58874;SDS011;44652;49.040;12.126;2023-03-11T12:41:04;3.20;;;1.25;;
58874;SDS011;44652;49.040;12.126;2023-03-11T12:45:59;3.25;;;1.33;;
58874;SDS011;44652;49.040;12.126;2023-03-11T12:50:52;2.92;;;1.40;;
58874;SDS011;44652;49.040;12.126;2023-03-11T12:53:19;5.22;;;1.40;;
58874;SDS011;44652;49.040;12.126;2023-03-11T12:56:51;2.65;;;1.10;;
58874;SDS011;44652;49.040;12.126;2023-03-11T13:01:23;3.00;;;1.20;;
58874;SDS011;44652;49.040;12.126;2023-03-11T13:08:51;4.78;;;1.48;;
58874;SDS011;44652;49.040;12.126;2023-03-11T13:13:52;4.32;;;1.70;;
58874;SDS011;44652;49.040;12.126;2023-03-11T13:16:37;2.92;;;1.23;;
58874;SDS011;44652;49.040;12.126;2023-03-11T13:22:04;1.83;;;1.00;;
58874;SDS011;44652;49.040;12.126;2023-03-11T13:34:59;2.88;;;1.30;;
58874;SDS011;44652;49.040;12.126;2023-03-11T13:42:30;2.40;;;1.08;;
58874;SDS011;44652;49.040;12.126;2023-03-11T13:44:58;3.17;;;1.13;;
58874;SDS011;44652;49.040;12.126;2023-03-11T13:47:25;2.95;;;1.30;;
58874;SDS011;44652;49.040;12.126;2023-03-11T13:50:04;2.08;;;1.00;;
58874;SDS011;44652;49.040;12.126;2023-03-11T13:52:34;2.78;;;1.33;;
58874;SDS011;44652;49.040;12.126;2023-03-11T13:55:05;4.07;;;1.50;;
58874;SDS011;44652;49.040;12.126;2023-03-11T13:57:33;2.70;;;1.33;;
58874;SDS011;44652;49.040;12.126;2023-03-11T14:00:04;3.90;;;1.60;;
58874;SDS011;44652;49.040;12.126;2023-03-11T14:02:44;4.05;;;1.50;;
58874;SDS011;44652;49.040;12.126;2023-03-11T14:05:22;3.78;;;1.65;;
58874;SDS011;44652;49.040;12.126;2023-03-11T14:07:49;5.00;;;2.70;;
58874;SDS011;44652;49.040;12.126;2023-03-11T14:10:17;6.25;;;2.10;;
58874;SDS011;44652;49.040;12.126;2023-03-11T14:12:43;5.30;;;1.92;;
58874;SDS011;44652;49.040;12.126;2023-03-11T14:15:28;3.45;;;1.85;;
58874;SDS011;44652;49.040;12.126;2023-03-11T14:18:18;5.80;;;2.15;;
58874;SDS011;44652;49.040;12.126;2023-03-11T14:20:46;6.15;;;1.83;;
58874;SDS011;44652;49.040;12.126;2023-03-11T14:23:16;5.53;;;2.42;;
58874;SDS011;44652;49.040;12.126;2023-03-11T14:25:45;5.80;;;3.05;;
58874;SDS011;44652;49.040;12.126;2023-03-11T14:28:16;5.28;;;2.65;;
58874;SDS011;44652;49.040;12.126;2023-03-11T14:30:54;7.28;;;3.47;;
58874;SDS011;44652;49.040;12.126;2023-03-11T14:33:21;7.38;;;4.07;;
58874;SDS011;44652;49.040;12.126;2023-03-11T14:35:52;3.50;;;1.67;;
58874;SDS011;44652;49.040;12.126;2023-03-11T14:38:19;4.57;;;2.50;;
58874;SDS011;44652;49.040;12.126;2023-03-11T14:40:48;4.55;;;1.60;;
58874;SDS011;44652;49.040;12.126;2023-03-11T14:43:16;3.25;;;1.60;;
58874;SDS011;44652;49.040;12.126;2023-03-11T14:45:45;4.50;;;1.70;;
58874;SDS011;44652;49.040;12.126;2023-03-11T14:48:13;4.68;;;1.73;;
58874;SDS011;44652;49.040;12.126;2023-03-11T14:50:42;4.93;;;1.77;;
58874;SDS011;44652;49.040;12.126;2023-03-11T14:53:16;3.90;;;1.48;;
58874;SDS011;44652;49.040;12.126;2023-03-11T14:55:48;3.22;;;1.50;;
58874;SDS011;44652;49.040;12.126;2023-03-11T14:58:20;6.38;;;2.40;;
58874;SDS011;44652;49.040;12.126;2023-03-11T15:00:56;6.43;;;2.38;;
58874;SDS011;44652;49.040;12.126;2023-03-11T15:03:25;4.97;;;2.00;;
58874;SDS011;44652;49.040;12.126;2023-03-11T15:05:55;5.72;;;1.80;;
58874;SDS011;44652;49.040;12.126;2023-03-11T15:13:29;3.83;;;1.92;;
58874;SDS011;44652;49.040;12.126;2023-03-11T15:16:03;2.92;;;1.50;;
58874;SDS011;44652;49.040;12.126;2023-03-11T15:18:31;4.22;;;1.60;;
58874;SDS011;44652;49.040;12.126;2023-03-11T15:23:28;3.50;;;1.70;;
58874;SDS011;44652;49.040;12.126;2023-03-11T15:25:54;4.40;;;1.63;;
58874;SDS011;44652;49.040;12.126;2023-03-11T15:30:50;4.53;;;1.63;;
58874;SDS011;44652;49.040;12.126;2023-03-11T15:33:21;3.65;;;1.95;;
58874;SDS011;44652;49.040;12.126;2023-03-11T15:35:47;4.10;;;1.60;;
58874;SDS011;44652;49.040;12.126;2023-03-11T15:38:24;4.72;;;1.90;;
58874;SDS011;44652;49.040;12.126;2023-03-11T15:40:52;4.70;;;1.70;;
58874;SDS011;44652;49.040;12.126;2023-03-11T15:43:20;3.50;;;2.00;;
58874;SDS011;44652;49.040;12.126;2023-03-11T15:45:49;5.20;;;1.90;;
58874;SDS011;44652;49.040;12.126;2023-03-11T15:48:19;5.88;;;2.53;;
58874;SDS011;44652;49.040;12.126;2023-03-11T15:50:46;4.00;;;1.92;;
58874;SDS011;44652;49.040;12.126;2023-03-11T15:53:18;3.58;;;1.77;;
58874;SDS011;44652;49.040;12.126;2023-03-11T15:55:45;3.63;;;1.70;;
58874;SDS011;44652;49.040;12.126;2023-03-11T15:58:16;5.32;;;1.67;;
58874;SDS011;44652;49.040;12.126;2023-03-11T16:00:45;3.72;;;1.60;;
58874;SDS011;44652;49.040;12.126;2023-03-11T16:03:12;3.00;;;1.55;;
58874;SDS011;44652;49.040;12.126;2023-03-11T16:05:39;5.60;;;1.98;;
58874;SDS011;44652;49.040;12.126;2023-03-11T16:08:05;4.13;;;1.85;;
58874;SDS011;44652;49.040;12.126;2023-03-11T16:10:32;4.82;;;1.77;;
58874;SDS011;44652;49.040;12.126;2023-03-11T16:12:58;3.88;;;1.80;;
58874;SDS011;44652;49.040;12.126;2023-03-11T16:15:26;3.85;;;1.80;;
58874;SDS011;44652;49.040;12.126;2023-03-11T16:17:55;4.80;;;2.25;;
58874;SDS011;44652;49.040;12.126;2023-03-11T16:20:22;4.03;;;1.80;;
58874;SDS011;44652;49.040;12.126;2023-03-11T16:22:50;3.85;;;2.00;;
58874;SDS011;44652;49.040;12.126;2023-03-11T16:25:39;4.57;;;2.40;;
58874;SDS011;44652;49.040;12.126;2023-03-11T16:28:05;5.53;;;2.20;;
58874;SDS011;44652;49.040;12.126;2023-03-11T16:30:32;4.32;;;1.98;;
58874;SDS011;44652;49.040;12.126;2023-03-11T16:32:59;4.88;;;1.85;;
58874;SDS011;44652;49.040;12.126;2023-03-11T16:35:29;5.82;;;2.35;;
58874;SDS011;44652;49.040;12.126;2023-03-11T16:37:55;4.88;;;2.20;;
58874;SDS011;44652;49.040;12.126;2023-03-11T16:40:23;7.30;;;2.10;;
58874;SDS011;44652;49.040;12.126;2023-03-11T16:42:59;4.90;;;2.17;;
58874;SDS011;44652;49.040;12.126;2023-03-11T16:45:26;5.85;;;2.38;;
58874;SDS011;44652;49.040;12.126;2023-03-11T16:47:53;6.40;;;2.28;;
58874;SDS011;44652;49.040;12.126;2023-03-11T16:50:19;6.15;;;2.53;;
58874;SDS011;44652;49.040;12.126;2023-03-11T16:52:46;7.32;;;2.70;;
58874;SDS011;44652;49.040;12.126;2023-03-11T16:55:12;5.18;;;2.20;;
58874;SDS011;44652;49.040;12.126;2023-03-11T16:57:39;8.45;;;2.75;;
58874;SDS011;44652;49.040;12.126;2023-03-11T17:00:06;6.00;;;2.90;;
58874;SDS011;44652;49.040;12.126;2023-03-11T17:02:35;5.97;;;2.50;;
58874;SDS011;44652;49.040;12.126;2023-03-11T17:05:02;6.85;;;2.83;;
58874;SDS011;44652;49.040;12.126;2023-03-11T17:07:30;6.05;;;2.70;;
58874;SDS011;44652;49.040;12.126;2023-03-11T17:09:57;4.85;;;2.60;;
58874;SDS011;44652;49.040;12.126;2023-03-11T17:12:24;6.72;;;2.60;;
58874;SDS011;44652;49.040;12.126;2023-03-11T17:14:51;7.55;;;3.03;;
58874;SDS011;44652;49.040;12.126;2023-03-11T17:17:18;5.60;;;2.70;;
58874;SDS011;44652;49.040;12.126;2023-03-11T17:19:44;5.03;;;2.80;;
58874;SDS011;44652;49.040;12.126;2023-03-11T17:22:11;5.97;;;2.90;;
58874;SDS011;44652;49.040;12.126;2023-03-11T17:24:38;5.00;;;2.58;;
58874;SDS011;44652;49.040;12.126;2023-03-11T17:27:05;6.25;;;2.60;;
58874;SDS011;44652;49.040;12.126;2023-03-11T17:29:31;7.53;;;3.13;;
58874;SDS011;44652;49.040;12.126;2023-03-11T17:31:59;7.95;;;3.03;;
58874;SDS011;44652;49.040;12.126;2023-03-11T17:34:26;5.82;;;2.80;;
58874;SDS011;44652;49.040;12.126;2023-03-11T17:36:52;5.70;;;2.58;;
58874;SDS011;44652;49.040;12.126;2023-03-11T17:39:19;6.90;;;2.58;;
58874;SDS011;44652;49.040;12.126;2023-03-11T17:41:46;6.60;;;2.97;;
58874;SDS011;44652;49.040;12.126;2023-03-11T17:44:13;5.75;;;2.97;;
58874;SDS011;44652;49.040;12.126;2023-03-11T17:46:40;8.73;;;4.22;;
58874;SDS011;44652;49.040;12.126;2023-03-11T17:49:06;7.65;;;3.35;;
58874;SDS011;44652;49.040;12.126;2023-03-11T17:51:33;7.07;;;3.55;;
58874;SDS011;44652;49.040;12.126;2023-03-11T17:54:00;7.35;;;3.38;;
58874;SDS011;44652;49.040;12.126;2023-03-11T17:56:26;7.78;;;3.63;;
58874;SDS011;44652;49.040;12.126;2023-03-11T17:58:53;7.65;;;3.75;;
58874;SDS011;44652;49.040;12.126;2023-03-11T18:01:21;5.93;;;3.10;;
58874;SDS011;44652;49.040;12.126;2023-03-11T18:03:49;7.32;;;3.17;;
58874;SDS011;44652;49.040;12.126;2023-03-11T18:06:16;6.10;;;2.92;;
58874;SDS011;44652;49.040;12.126;2023-03-11T18:08:42;6.25;;;3.40;;
58874;SDS011;44652;49.040;12.126;2023-03-11T18:11:11;6.47;;;3.90;;
58874;SDS011;44652;49.040;12.126;2023-03-11T18:13:38;6.43;;;3.30;;
58874;SDS011;44652;49.040;12.126;2023-03-11T18:16:06;7.32;;;3.83;;
58874;SDS011;44652;49.040;12.126;2023-03-11T18:21:04;6.60;;;3.58;;
58874;SDS011;44652;49.040;12.126;2023-03-11T18:23:31;7.10;;;3.58;;
58874;SDS011;44652;49.040;12.126;2023-03-11T18:26:01;10.68;;;4.30;;
58874;SDS011;44652;49.040;12.126;2023-03-11T18:28:28;9.20;;;5.20;;
58874;SDS011;44652;49.040;12.126;2023-03-11T18:30:54;11.13;;;6.32;;
58874;SDS011;44652;49.040;12.126;2023-03-11T18:33:21;11.05;;;6.55;;
58874;SDS011;44652;49.040;12.126;2023-03-11T18:35:48;8.27;;;4.97;;
58874;SDS011;44652;49.040;12.126;2023-03-11T18:38:15;9.90;;;4.75;;
58874;SDS011;44652;49.040;12.126;2023-03-11T18:40:41;9.50;;;4.30;;
58874;SDS011;44652;49.040;12.126;2023-03-11T18:43:09;8.27;;;4.28;;
58874;SDS011;44652;49.040;12.126;2023-03-11T18:45:37;7.75;;;3.38;;
58874;SDS011;44652;49.040;12.126;2023-03-11T18:48:04;8.88;;;4.05;;
58874;SDS011;44652;49.040;12.126;2023-03-11T18:50:31;10.88;;;4.05;;
58874;SDS011;44652;49.040;12.126;2023-03-11T18:52:57;7.53;;;3.72;;
58874;SDS011;44652;49.040;12.126;2023-03-11T18:55:25;8.93;;;5.00;;
58874;SDS011;44652;49.040;12.126;2023-03-11T18:57:51;9.30;;;4.90;;
58874;SDS011;44652;49.040;12.126;2023-03-11T19:00:18;12.18;;;7.00;;
58874;SDS011;44652;49.040;12.126;2023-03-11T19:02:49;11.63;;;4.85;;
58874;SDS011;44652;49.040;12.126;2023-03-11T19:05:16;9.10;;;4.78;;
58874;SDS011;44652;49.040;12.126;2023-03-11T19:07:42;9.45;;;5.20;;
58874;SDS011;44652;49.040;12.126;2023-03-11T19:10:09;8.00;;;4.38;;
58874;SDS011;44652;49.040;12.126;2023-03-11T19:12:37;10.85;;;5.20;;
58874;SDS011;44652;49.040;12.126;2023-03-11T19:15:05;8.77;;;4.37;;
58874;SDS011;44652;49.040;12.126;2023-03-11T19:17:32;7.38;;;4.13;;
58874;SDS011;44652;49.040;12.126;2023-03-11T19:19:58;11.38;;;4.97;;
58874;SDS011;44652;49.040;12.126;2023-03-11T19:22:25;8.70;;;4.95;;
58874;SDS011;44652;49.040;12.126;2023-03-11T19:24:52;9.77;;;5.30;;
58874;SDS011;44652;49.040;12.126;2023-03-11T19:27:18;13.10;;;6.70;;
58874;SDS011;44652;49.040;12.126;2023-03-11T19:29:45;8.27;;;4.00;;
58874;SDS011;44652;49.040;12.126;2023-03-11T19:32:11;8.48;;;3.85;;
58874;SDS011;44652;49.040;12.126;2023-03-11T19:34:38;8.02;;;4.50;;
58874;SDS011;44652;49.040;12.126;2023-03-11T19:37:05;7.60;;;4.35;;
58874;SDS011;44652;49.040;12.126;2023-03-11T19:39:31;8.30;;;4.30;;
58874;SDS011;44652;49.040;12.126;2023-03-11T19:41:58;7.30;;;3.95;;
58874;SDS011;44652;49.040;12.126;2023-03-11T19:44:24;8.07;;;3.97;;
58874;SDS011;44652;49.040;12.126;2023-03-11T19:46:51;7.53;;;3.63;;
58874;SDS011;44652;49.040;12.126;2023-03-11T19:49:17;10.05;;;3.78;;
58874;SDS011;44652;49.040;12.126;2023-03-11T19:51:44;6.07;;;3.83;;
58874;SDS011;44652;49.040;12.126;2023-03-11T19:54:15;6.70;;;3.53;;
58874;SDS011;44652;49.040;12.126;2023-03-11T19:56:42;7.78;;;3.95;;
58874;SDS011;44652;49.040;12.126;2023-03-11T19:59:09;8.00;;;3.97;;
58874;SDS011;44652;49.040;12.126;2023-03-11T20:01:35;8.55;;;5.07;;
58874;SDS011;44652;49.040;12.126;2023-03-11T20:04:02;11.48;;;6.30;;
58874;SDS011;44652;49.040;12.126;2023-03-11T20:06:29;11.32;;;6.75;;
58874;SDS011;44652;49.040;12.126;2023-03-11T20:08:56;12.85;;;7.10;;
58874;SDS011;44652;49.040;12.126;2023-03-11T20:11:22;13.05;;;7.43;;
58874;SDS011;44652;49.040;12.126;2023-03-11T20:13:49;11.93;;;6.70;;
58874;SDS011;44652;49.040;12.126;2023-03-11T20:16:16;11.25;;;6.15;;
58874;SDS011;44652;49.040;12.126;2023-03-11T20:19:03;8.88;;;5.60;;
58874;SDS011;44652;49.040;12.126;2023-03-11T20:21:29;11.48;;;5.90;;
58874;SDS011;44652;49.040;12.126;2023-03-11T20:23:56;8.27;;;5.20;;
58874;SDS011;44652;49.040;12.126;2023-03-11T20:26:23;9.05;;;5.50;;
58874;SDS011;44652;49.040;12.126;2023-03-11T20:28:53;9.13;;;5.35;;
58874;SDS011;44652;49.040;12.126;2023-03-11T20:31:20;8.77;;;5.65;;
58874;SDS011;44652;49.040;12.126;2023-03-11T20:33:47;10.47;;;5.80;;
58874;SDS011;44652;49.040;12.126;2023-03-11T20:36:15;11.95;;;6.40;;
58874;SDS011;44652;49.040;12.126;2023-03-11T20:38:42;10.65;;;6.53;;
58874;SDS011;44652;49.040;12.126;2023-03-11T20:41:09;10.68;;;6.40;;
58874;SDS011;44652;49.040;12.126;2023-03-11T20:43:36;9.32;;;6.10;;
58874;SDS011;44652;49.040;12.126;2023-03-11T20:46:04;12.23;;;6.90;;
58874;SDS011;44652;49.040;12.126;2023-03-11T20:48:31;18.65;;;9.65;;
58874;SDS011;44652;49.040;12.126;2023-03-11T20:51:01;19.92;;;10.73;;
58874;SDS011;44652;49.040;12.126;2023-03-11T20:53:29;15.70;;;8.82;;
58874;SDS011;44652;49.040;12.126;2023-03-11T20:55:56;13.60;;;8.70;;
58874;SDS011;44652;49.040;12.126;2023-03-11T20:58:23;13.27;;;7.60;;
58874;SDS011;44652;49.040;12.126;2023-03-11T21:00:49;11.98;;;7.47;;
58874;SDS011;44652;49.040;12.126;2023-03-11T21:03:17;13.55;;;8.65;;
58874;SDS011;44652;49.040;12.126;2023-03-11T21:05:44;17.65;;;10.73;;
58874;SDS011;44652;49.040;12.126;2023-03-11T21:08:10;15.52;;;10.23;;
58874;SDS011;44652;49.040;12.126;2023-03-11T21:10:37;14.82;;;8.93;;
58874;SDS011;44652;49.040;12.126;2023-03-11T21:13:04;10.95;;;6.40;;
58874;SDS011;44652;49.040;12.126;2023-03-11T21:15:31;10.85;;;6.88;;
58874;SDS011;44652;49.040;12.126;2023-03-11T21:18:00;15.60;;;9.98;;
58874;SDS011;44652;49.040;12.126;2023-03-11T21:20:26;16.63;;;10.55;;
58874;SDS011;44652;49.040;12.126;2023-03-11T21:22:53;13.93;;;9.35;;
58874;SDS011;44652;49.040;12.126;2023-03-11T21:25:19;13.98;;;7.10;;
58874;SDS011;44652;49.040;12.126;2023-03-11T21:27:46;12.75;;;7.38;;
58874;SDS011;44652;49.040;12.126;2023-03-11T21:30:13;14.65;;;9.13;;
58874;SDS011;44652;49.040;12.126;2023-03-11T21:32:39;14.48;;;9.63;;
58874;SDS011;44652;49.040;12.126;2023-03-11T21:35:06;16.17;;;10.23;;
58874;SDS011;44652;49.040;12.126;2023-03-11T21:37:33;12.63;;;7.78;;
58874;SDS011;44652;49.040;12.126;2023-03-11T21:39:59;12.68;;;8.00;;
58874;SDS011;44652;49.040;12.126;2023-03-11T21:42:27;11.15;;;7.30;;
58874;SDS011;44652;49.040;12.126;2023-03-11T21:44:54;12.05;;;7.80;;
58874;SDS011;44652;49.040;12.126;2023-03-11T21:47:20;11.88;;;7.45;;
58874;SDS011;44652;49.040;12.126;2023-03-11T21:49:47;13.23;;;7.35;;
58874;SDS011;44652;49.040;12.126;2023-03-11T21:52:14;12.05;;;7.72;;
58874;SDS011;44652;49.040;12.126;2023-03-11T21:54:40;13.77;;;7.65;;
58874;SDS011;44652;49.040;12.126;2023-03-11T21:57:07;9.82;;;6.20;;
58874;SDS011;44652;49.040;12.126;2023-03-11T21:59:34;12.93;;;7.55;;
58874;SDS011;44652;49.040;12.126;2023-03-11T22:02:00;14.68;;;6.70;;
58874;SDS011;44652;49.040;12.126;2023-03-11T22:04:29;13.23;;;6.88;;
58874;SDS011;44652;49.040;12.126;2023-03-11T22:06:56;12.18;;;5.78;;
58874;SDS011;44652;49.040;12.126;2023-03-11T22:09:22;11.63;;;6.15;;
58874;SDS011;44652;49.040;12.126;2023-03-11T22:11:52;10.43;;;5.93;;
58874;SDS011;44652;49.040;12.126;2023-03-11T22:14:21;12.07;;;6.65;;
58874;SDS011;44652;49.040;12.126;2023-03-11T22:16:48;10.30;;;6.38;;
58874;SDS011;44652;49.040;12.126;2023-03-11T22:19:14;13.60;;;8.30;;
58874;SDS011;44652;49.040;12.126;2023-03-11T22:21:41;12.90;;;7.75;;
58874;SDS011;44652;49.040;12.126;2023-03-11T22:24:07;11.82;;;6.70;;
58874;SDS011;44652;49.040;12.126;2023-03-11T22:26:34;12.00;;;6.95;;
58874;SDS011;44652;49.040;12.126;2023-03-11T22:29:00;12.85;;;7.22;;
58874;SDS011;44652;49.040;12.126;2023-03-11T22:33:56;11.77;;;6.43;;
58874;SDS011;44652;49.040;12.126;2023-03-11T22:36:22;12.82;;;7.10;;